Terminal Aerodrome Forecast
Issued by NWS

Home | Current Version | Previous Version | Text Only | Print | Product List | Glossary Off
Versions: 1 2 3 4 5 6 7 8 9 10 11 12 13 14 15

662
FTUS43 KGRB 251412 AAA
TAFCWA
TAF AMD
KCWA 251412Z 2514/2612 29007KT P6SM OVC011
      TEMPO 2514/2517 SCT011 BKN100
     FM251700 28010G18KT P6SM SCT015 BKN030
      TEMPO 2518/2522 -SHRA BKN015
     FM252200 29010G15KT P6SM -SHRA BKN020
     FM260200 28007KT P6SM BKN020 BKN070=

USA.gov is the U.S. government's official web portal to all federal, state and local government web resources and services.